sensor_id;sensor_type;location;lat;lon;timestamp;P1;durP1;ratioP1;P2;durP2;ratioP2
59585;SDS011;45408;52.686;7.310;2023-02-14T00:02:23;16.97;;;7.80;;
59585;SDS011;45408;52.686;7.310;2023-02-14T00:04:48;14.63;;;7.63;;
59585;SDS011;45408;52.686;7.310;2023-02-14T00:07:13;11.03;;;7.33;;
59585;SDS011;45408;52.686;7.310;2023-02-14T00:09:38;17.27;;;9.13;;
59585;SDS011;45408;52.686;7.310;2023-02-14T00:12:03;14.40;;;8.10;;
59585;SDS011;45408;52.686;7.310;2023-02-14T00:14:29;15.20;;;8.13;;
59585;SDS011;45408;52.686;7.310;2023-02-14T00:17:13;13.27;;;7.13;;
59585;SDS011;45408;52.686;7.310;2023-02-14T00:19:38;12.27;;;7.33;;
59585;SDS011;45408;52.686;7.310;2023-02-14T00:22:03;16.80;;;8.83;;
59585;SDS011;45408;52.686;7.310;2023-02-14T00:24:29;15.88;;;9.30;;
59585;SDS011;45408;52.686;7.310;2023-02-14T00:26:54;16.48;;;8.52;;
59585;SDS011;45408;52.686;7.310;2023-02-14T00:29:21;14.48;;;8.45;;
59585;SDS011;45408;52.686;7.310;2023-02-14T00:31:46;15.70;;;9.13;;
59585;SDS011;45408;52.686;7.310;2023-02-14T00:34:11;21.63;;;9.10;;
59585;SDS011;45408;52.686;7.310;2023-02-14T00:36:37;16.17;;;8.90;;
59585;SDS011;45408;52.686;7.310;2023-02-14T00:39:03;13.40;;;7.97;;
59585;SDS011;45408;52.686;7.310;2023-02-14T00:41:29;15.82;;;8.15;;
59585;SDS011;45408;52.686;7.310;2023-02-14T00:43:54;19.92;;;9.25;;
59585;SDS011;45408;52.686;7.310;2023-02-14T00:46:20;21.13;;;9.63;;
59585;SDS011;45408;52.686;7.310;2023-02-14T00:48:46;21.95;;;10.15;;
59585;SDS011;45408;52.686;7.310;2023-02-14T00:51:11;18.92;;;10.05;;
59585;SDS011;45408;52.686;7.310;2023-02-14T00:53:36;21.60;;;10.48;;
59585;SDS011;45408;52.686;7.310;2023-02-14T00:56:02;19.92;;;10.05;;
59585;SDS011;45408;52.686;7.310;2023-02-14T00:58:27;14.90;;;8.95;;
59585;SDS011;45408;52.686;7.310;2023-02-14T01:00:53;20.77;;;10.40;;
59585;SDS011;45408;52.686;7.310;2023-02-14T01:03:18;17.38;;;8.82;;
59585;SDS011;45408;52.686;7.310;2023-02-14T01:05:43;21.13;;;10.47;;
59585;SDS011;45408;52.686;7.310;2023-02-14T01:08:08;16.70;;;8.50;;
59585;SDS011;45408;52.686;7.310;2023-02-14T01:10:37;17.42;;;9.05;;
59585;SDS011;45408;52.686;7.310;2023-02-14T01:13:02;15.38;;;8.95;;
59585;SDS011;45408;52.686;7.310;2023-02-14T01:15:27;17.45;;;8.60;;
59585;SDS011;45408;52.686;7.310;2023-02-14T01:17:53;16.48;;;9.27;;
59585;SDS011;45408;52.686;7.310;2023-02-14T01:20:18;14.97;;;9.07;;
59585;SDS011;45408;52.686;7.310;2023-02-14T01:22:43;20.63;;;9.35;;
59585;SDS011;45408;52.686;7.310;2023-02-14T01:25:08;15.50;;;8.27;;
59585;SDS011;45408;52.686;7.310;2023-02-14T01:27:33;17.30;;;9.73;;
59585;SDS011;45408;52.686;7.310;2023-02-14T01:29:59;15.13;;;8.00;;
59585;SDS011;45408;52.686;7.310;2023-02-14T01:32:24;14.00;;;8.23;;
59585;SDS011;45408;52.686;7.310;2023-02-14T01:34:49;12.63;;;7.63;;
59585;SDS011;45408;52.686;7.310;2023-02-14T01:37:14;18.30;;;8.33;;
59585;SDS011;45408;52.686;7.310;2023-02-14T01:39:39;15.00;;;8.13;;
59585;SDS011;45408;52.686;7.310;2023-02-14T01:42:05;13.45;;;7.63;;
59585;SDS011;45408;52.686;7.310;2023-02-14T01:46:55;15.18;;;8.10;;
59585;SDS011;45408;52.686;7.310;2023-02-14T01:49:26;14.80;;;8.10;;
59585;SDS011;45408;52.686;7.310;2023-02-14T01:51:53;15.93;;;7.97;;
59585;SDS011;45408;52.686;7.310;2023-02-14T01:54:22;14.00;;;8.10;;
59585;SDS011;45408;52.686;7.310;2023-02-14T01:56:48;16.98;;;8.48;;
59585;SDS011;45408;52.686;7.310;2023-02-14T01:59:16;21.77;;;8.32;;
59585;SDS011;45408;52.686;7.310;2023-02-14T02:01:42;15.10;;;7.72;;
59585;SDS011;45408;52.686;7.310;2023-02-14T02:04:09;15.82;;;8.05;;
59585;SDS011;45408;52.686;7.310;2023-02-14T02:06:46;17.10;;;9.38;;
59585;SDS011;45408;52.686;7.310;2023-02-14T02:09:33;16.55;;;8.93;;
59585;SDS011;45408;52.686;7.310;2023-02-14T02:12:00;14.90;;;7.90;;
59585;SDS011;45408;52.686;7.310;2023-02-14T02:14:25;18.70;;;8.88;;
59585;SDS011;45408;52.686;7.310;2023-02-14T02:17:03;15.67;;;8.03;;
59585;SDS011;45408;52.686;7.310;2023-02-14T02:27:48;15.85;;;8.85;;
59585;SDS011;45408;52.686;7.310;2023-02-14T02:30:14;26.70;;;10.20;;
59585;SDS011;45408;52.686;7.310;2023-02-14T02:40:43;21.58;;;10.68;;
59585;SDS011;45408;52.686;7.310;2023-02-14T02:48:44;27.08;;;10.60;;
59585;SDS011;45408;52.686;7.310;2023-02-14T02:51:13;20.77;;;11.32;;
59585;SDS011;45408;52.686;7.310;2023-02-14T02:54:03;24.05;;;10.73;;
59585;SDS011;45408;52.686;7.310;2023-02-14T02:56:36;21.42;;;11.38;;
59585;SDS011;45408;52.686;7.310;2023-02-14T02:59:21;21.52;;;10.85;;
59585;SDS011;45408;52.686;7.310;2023-02-14T03:01:55;24.00;;;11.70;;
59585;SDS011;45408;52.686;7.310;2023-02-14T03:04:21;20.52;;;10.27;;
59585;SDS011;45408;52.686;7.310;2023-02-14T03:07:06;21.58;;;11.32;;
59585;SDS011;45408;52.686;7.310;2023-02-14T03:09:56;20.55;;;10.25;;
59585;SDS011;45408;52.686;7.310;2023-02-14T03:13:11;23.08;;;11.82;;
59585;SDS011;45408;52.686;7.310;2023-02-14T03:20:34;21.58;;;11.07;;
59585;SDS011;45408;52.686;7.310;2023-02-14T03:23:16;20.10;;;10.95;;
59585;SDS011;45408;52.686;7.310;2023-02-14T03:28:19;22.00;;;10.93;;
59585;SDS011;45408;52.686;7.310;2023-02-14T03:33:44;19.70;;;11.23;;
59585;SDS011;45408;52.686;7.310;2023-02-14T03:36:12;19.42;;;10.82;;
59585;SDS011;45408;52.686;7.310;2023-02-14T03:38:40;21.10;;;11.77;;
59585;SDS011;45408;52.686;7.310;2023-02-14T03:41:10;22.15;;;11.70;;
59585;SDS011;45408;52.686;7.310;2023-02-14T03:43:38;22.02;;;11.10;;
59585;SDS011;45408;52.686;7.310;2023-02-14T03:46:09;24.90;;;13.00;;
59585;SDS011;45408;52.686;7.310;2023-02-14T03:48:35;20.20;;;10.77;;
59585;SDS011;45408;52.686;7.310;2023-02-14T03:51:02;21.55;;;11.27;;
59585;SDS011;45408;52.686;7.310;2023-02-14T03:53:29;23.27;;;10.98;;
59585;SDS011;45408;52.686;7.310;2023-02-14T03:58:25;20.23;;;11.70;;
59585;SDS011;45408;52.686;7.310;2023-02-14T04:00:51;23.20;;;11.95;;
59585;SDS011;45408;52.686;7.310;2023-02-14T04:03:20;22.58;;;11.77;;
59585;SDS011;45408;52.686;7.310;2023-02-14T04:05:48;20.33;;;11.23;;
59585;SDS011;45408;52.686;7.310;2023-02-14T04:08:19;19.13;;;10.97;;
59585;SDS011;45408;52.686;7.310;2023-02-14T04:13:10;24.33;;;11.65;;
59585;SDS011;45408;52.686;7.310;2023-02-14T04:15:35;18.80;;;9.67;;
59585;SDS011;45408;52.686;7.310;2023-02-14T04:18:00;23.20;;;12.17;;
59585;SDS011;45408;52.686;7.310;2023-02-14T04:20:44;20.92;;;11.10;;
59585;SDS011;45408;52.686;7.310;2023-02-14T04:23:09;26.77;;;11.17;;
59585;SDS011;45408;52.686;7.310;2023-02-14T04:25:34;27.37;;;11.60;;
59585;SDS011;45408;52.686;7.310;2023-02-14T04:28:00;38.67;;;10.97;;
59585;SDS011;45408;52.686;7.310;2023-02-14T04:30:25;27.63;;;12.27;;
59585;SDS011;45408;52.686;7.310;2023-02-14T04:32:50;22.30;;;10.60;;
59585;SDS011;45408;52.686;7.310;2023-02-14T04:35:15;25.70;;;11.02;;
59585;SDS011;45408;52.686;7.310;2023-02-14T04:37:41;17.38;;;10.93;;
59585;SDS011;45408;52.686;7.310;2023-02-14T04:40:06;20.38;;;10.30;;
59585;SDS011;45408;52.686;7.310;2023-02-14T04:42:32;18.02;;;10.40;;
59585;SDS011;45408;52.686;7.310;2023-02-14T04:44:57;19.55;;;9.55;;
59585;SDS011;45408;52.686;7.310;2023-02-14T04:47:22;18.48;;;10.77;;
59585;SDS011;45408;52.686;7.310;2023-02-14T04:49:47;18.70;;;10.83;;
59585;SDS011;45408;52.686;7.310;2023-02-14T04:52:13;21.40;;;10.80;;
59585;SDS011;45408;52.686;7.310;2023-02-14T04:54:38;18.08;;;10.18;;
59585;SDS011;45408;52.686;7.310;2023-02-14T04:57:04;17.03;;;9.83;;
59585;SDS011;45408;52.686;7.310;2023-02-14T04:59:29;18.17;;;10.30;;
59585;SDS011;45408;52.686;7.310;2023-02-14T05:01:54;16.73;;;9.70;;
59585;SDS011;45408;52.686;7.310;2023-02-14T05:04:19;17.27;;;9.93;;
59585;SDS011;45408;52.686;7.310;2023-02-14T05:06:45;23.17;;;10.95;;
59585;SDS011;45408;52.686;7.310;2023-02-14T05:09:10;19.38;;;10.35;;
59585;SDS011;45408;52.686;7.310;2023-02-14T05:11:35;18.00;;;10.30;;
59585;SDS011;45408;52.686;7.310;2023-02-14T05:14:00;16.33;;;9.30;;
59585;SDS011;45408;52.686;7.310;2023-02-14T05:16:26;16.00;;;9.33;;
59585;SDS011;45408;52.686;7.310;2023-02-14T05:18:51;25.47;;;9.43;;
59585;SDS011;45408;52.686;7.310;2023-02-14T05:21:16;14.57;;;9.50;;
59585;SDS011;45408;52.686;7.310;2023-02-14T05:23:42;20.45;;;10.18;;
59585;SDS011;45408;52.686;7.310;2023-02-14T05:26:07;40.33;;;9.68;;
59585;SDS011;45408;52.686;7.310;2023-02-14T05:28:32;16.10;;;9.57;;
59585;SDS011;45408;52.686;7.310;2023-02-14T05:30:58;13.98;;;8.18;;
59585;SDS011;45408;52.686;7.310;2023-02-14T05:33:23;15.43;;;9.52;;
59585;SDS011;45408;52.686;7.310;2023-02-14T05:35:49;16.45;;;8.50;;
59585;SDS011;45408;52.686;7.310;2023-02-14T05:38:14;13.27;;;8.70;;
59585;SDS011;45408;52.686;7.310;2023-02-14T05:40:39;17.87;;;10.03;;
59585;SDS011;45408;52.686;7.310;2023-02-14T05:43:05;16.17;;;9.68;;
59585;SDS011;45408;52.686;7.310;2023-02-14T05:45:30;17.13;;;8.65;;
59585;SDS011;45408;52.686;7.310;2023-02-14T05:47:56;16.00;;;9.25;;
59585;SDS011;45408;52.686;7.310;2023-02-14T05:50:21;16.30;;;9.27;;
59585;SDS011;45408;52.686;7.310;2023-02-14T05:52:46;16.75;;;9.65;;
59585;SDS011;45408;52.686;7.310;2023-02-14T05:55:11;15.00;;;8.63;;
59585;SDS011;45408;52.686;7.310;2023-02-14T05:57:37;14.15;;;8.15;;
59585;SDS011;45408;52.686;7.310;2023-02-14T06:00:03;16.03;;;9.30;;
59585;SDS011;45408;52.686;7.310;2023-02-14T06:02:29;14.10;;;8.32;;
59585;SDS011;45408;52.686;7.310;2023-02-14T06:04:54;19.37;;;8.97;;
59585;SDS011;45408;52.686;7.310;2023-02-14T06:07:19;15.93;;;9.02;;
59585;SDS011;45408;52.686;7.310;2023-02-14T06:09:45;12.80;;;8.43;;
59585;SDS011;45408;52.686;7.310;2023-02-14T06:12:10;13.20;;;8.17;;
59585;SDS011;45408;52.686;7.310;2023-02-14T06:14:35;13.90;;;8.37;;
59585;SDS011;45408;52.686;7.310;2023-02-14T06:17:00;14.43;;;8.23;;
59585;SDS011;45408;52.686;7.310;2023-02-14T06:19:26;16.63;;;8.52;;
59585;SDS011;45408;52.686;7.310;2023-02-14T06:21:51;14.50;;;8.20;;
59585;SDS011;45408;52.686;7.310;2023-02-14T06:24:16;12.90;;;7.97;;
59585;SDS011;45408;52.686;7.310;2023-02-14T06:26:41;15.10;;;8.70;;
59585;SDS011;45408;52.686;7.310;2023-02-14T06:29:06;13.57;;;7.73;;
59585;SDS011;45408;52.686;7.310;2023-02-14T06:31:31;13.30;;;8.10;;
59585;SDS011;45408;52.686;7.310;2023-02-14T06:33:57;13.80;;;8.47;;
59585;SDS011;45408;52.686;7.310;2023-02-14T06:36:22;13.27;;;7.77;;
59585;SDS011;45408;52.686;7.310;2023-02-14T06:38:47;15.27;;;8.63;;
59585;SDS011;45408;52.686;7.310;2023-02-14T06:41:13;13.18;;;8.63;;
59585;SDS011;45408;52.686;7.310;2023-02-14T06:43:41;15.87;;;7.63;;
59585;SDS011;45408;52.686;7.310;2023-02-14T06:46:06;14.93;;;8.85;;
59585;SDS011;45408;52.686;7.310;2023-02-14T06:48:31;14.07;;;7.93;;
59585;SDS011;45408;52.686;7.310;2023-02-14T06:50:56;14.50;;;7.80;;
59585;SDS011;45408;52.686;7.310;2023-02-14T06:53:22;14.13;;;7.68;;
59585;SDS011;45408;52.686;7.310;2023-02-14T06:55:47;17.47;;;9.10;;
59585;SDS011;45408;52.686;7.310;2023-02-14T06:58:13;15.05;;;8.60;;
59585;SDS011;45408;52.686;7.310;2023-02-14T07:00:38;14.82;;;9.00;;
59585;SDS011;45408;52.686;7.310;2023-02-14T07:03:06;17.55;;;9.27;;
59585;SDS011;45408;52.686;7.310;2023-02-14T07:05:32;14.73;;;8.13;;
59585;SDS011;45408;52.686;7.310;2023-02-14T07:07:57;16.60;;;9.63;;
59585;SDS011;45408;52.686;7.310;2023-02-14T07:10:23;14.18;;;8.57;;
59585;SDS011;45408;52.686;7.310;2023-02-14T07:12:48;15.00;;;8.90;;
59585;SDS011;45408;52.686;7.310;2023-02-14T07:15:13;14.17;;;8.40;;
59585;SDS011;45408;52.686;7.310;2023-02-14T07:17:38;12.77;;;8.23;;
59585;SDS011;45408;52.686;7.310;2023-02-14T07:20:04;18.02;;;9.32;;
59585;SDS011;45408;52.686;7.310;2023-02-14T07:22:30;14.73;;;8.63;;
59585;SDS011;45408;52.686;7.310;2023-02-14T07:24:59;16.52;;;9.70;;
59585;SDS011;45408;52.686;7.310;2023-02-14T07:27:24;17.95;;;9.77;;
59585;SDS011;45408;52.686;7.310;2023-02-14T07:29:49;18.33;;;10.43;;
59585;SDS011;45408;52.686;7.310;2023-02-14T07:32:14;18.93;;;10.00;;
59585;SDS011;45408;52.686;7.310;2023-02-14T07:34:40;16.40;;;9.70;;
59585;SDS011;45408;52.686;7.310;2023-02-14T07:37:05;17.60;;;10.95;;
59585;SDS011;45408;52.686;7.310;2023-02-14T07:39:30;14.73;;;9.02;;
59585;SDS011;45408;52.686;7.310;2023-02-14T07:41:55;17.53;;;10.07;;
59585;SDS011;45408;52.686;7.310;2023-02-14T07:44:20;19.00;;;10.33;;
59585;SDS011;45408;52.686;7.310;2023-02-14T07:46:45;14.53;;;9.10;;
59585;SDS011;45408;52.686;7.310;2023-02-14T07:49:11;16.50;;;8.70;;
59585;SDS011;45408;52.686;7.310;2023-02-14T07:51:36;17.52;;;10.00;;
59585;SDS011;45408;52.686;7.310;2023-02-14T07:54:01;15.77;;;8.90;;
59585;SDS011;45408;52.686;7.310;2023-02-14T07:56:26;17.40;;;9.40;;
59585;SDS011;45408;52.686;7.310;2023-02-14T07:58:52;17.33;;;10.37;;
59585;SDS011;45408;52.686;7.310;2023-02-14T08:01:17;21.10;;;11.00;;
59585;SDS011;45408;52.686;7.310;2023-02-14T08:03:42;18.10;;;10.43;;
59585;SDS011;45408;52.686;7.310;2023-02-14T08:06:09;16.45;;;9.63;;
59585;SDS011;45408;52.686;7.310;2023-02-14T08:08:35;23.45;;;11.48;;
59585;SDS011;45408;52.686;7.310;2023-02-14T08:11:00;18.37;;;10.60;;
59585;SDS011;45408;52.686;7.310;2023-02-14T08:13:25;19.17;;;11.68;;
59585;SDS011;45408;52.686;7.310;2023-02-14T08:15:51;19.25;;;9.93;;
59585;SDS011;45408;52.686;7.310;2023-02-14T08:18:28;21.23;;;11.70;;
59585;SDS011;45408;52.686;7.310;2023-02-14T08:20:54;20.92;;;11.35;;
59585;SDS011;45408;52.686;7.310;2023-02-14T08:23:19;20.93;;;11.33;;
59585;SDS011;45408;52.686;7.310;2023-02-14T08:25:45;21.05;;;11.75;;
59585;SDS011;45408;52.686;7.310;2023-02-14T08:28:10;19.13;;;11.10;;
59585;SDS011;45408;52.686;7.310;2023-02-14T08:30:37;17.63;;;11.00;;
59585;SDS011;45408;52.686;7.310;2023-02-14T08:33:02;18.83;;;11.67;;
59585;SDS011;45408;52.686;7.310;2023-02-14T08:35:27;22.35;;;12.18;;
59585;SDS011;45408;52.686;7.310;2023-02-14T08:37:52;24.93;;;14.07;;
59585;SDS011;45408;52.686;7.310;2023-02-14T08:40:18;25.60;;;13.32;;
59585;SDS011;45408;52.686;7.310;2023-02-14T08:42:44;23.42;;;13.25;;
59585;SDS011;45408;52.686;7.310;2023-02-14T08:45:09;25.63;;;12.70;;
59585;SDS011;45408;52.686;7.310;2023-02-14T08:47:35;24.75;;;14.40;;
59585;SDS011;45408;52.686;7.310;2023-02-14T08:50:03;21.40;;;12.43;;
59585;SDS011;45408;52.686;7.310;2023-02-14T08:52:28;21.63;;;13.05;;
59585;SDS011;45408;52.686;7.310;2023-02-14T08:54:53;20.57;;;11.43;;
59585;SDS011;45408;52.686;7.310;2023-02-14T08:57:18;23.97;;;12.53;;
59585;SDS011;45408;52.686;7.310;2023-02-14T08:59:44;21.67;;;11.88;;
59585;SDS011;45408;52.686;7.310;2023-02-14T09:02:12;22.23;;;13.52;;
59585;SDS011;45408;52.686;7.310;2023-02-14T09:04:37;24.25;;;13.23;;
59585;SDS011;45408;52.686;7.310;2023-02-14T09:07:03;23.08;;;12.68;;
59585;SDS011;45408;52.686;7.310;2023-02-14T09:09:28;24.05;;;12.65;;
59585;SDS011;45408;52.686;7.310;2023-02-14T09:11:53;17.92;;;11.05;;
59585;SDS011;45408;52.686;7.310;2023-02-14T09:14:20;24.85;;;12.10;;
59585;SDS011;45408;52.686;7.310;2023-02-14T09:16:45;22.23;;;14.05;;
59585;SDS011;45408;52.686;7.310;2023-02-14T09:19:10;22.50;;;11.77;;
59585;SDS011;45408;52.686;7.310;2023-02-14T09:21:36;22.97;;;13.33;;
59585;SDS011;45408;52.686;7.310;2023-02-14T09:24:02;19.33;;;10.77;;
59585;SDS011;45408;52.686;7.310;2023-02-14T09:26:27;18.65;;;11.40;;
59585;SDS011;45408;52.686;7.310;2023-02-14T09:28:52;20.35;;;10.90;;
59585;SDS011;45408;52.686;7.310;2023-02-14T09:31:19;21.30;;;12.80;;
59585;SDS011;45408;52.686;7.310;2023-02-14T09:33:45;19.85;;;10.93;;
59585;SDS011;45408;52.686;7.310;2023-02-14T09:36:10;22.75;;;12.88;;
59585;SDS011;45408;52.686;7.310;2023-02-14T09:38:54;26.50;;;14.13;;
59585;SDS011;45408;52.686;7.310;2023-02-14T09:43:54;19.35;;;10.57;;
59585;SDS011;45408;52.686;7.310;2023-02-14T09:46:23;23.77;;;12.13;;
59585;SDS011;45408;52.686;7.310;2023-02-14T09:48:49;19.50;;;11.73;;
59585;SDS011;45408;52.686;7.310;2023-02-14T09:51:19;24.23;;;13.68;;
59585;SDS011;45408;52.686;7.310;2023-02-14T10:01:35;14.77;;;9.30;;
59585;SDS011;45408;52.686;7.310;2023-02-14T10:06:37;19.47;;;9.80;;
59585;SDS011;45408;52.686;7.310;2023-02-14T10:11:48;18.45;;;11.40;;
59585;SDS011;45408;52.686;7.310;2023-02-14T10:14:18;25.98;;;14.75;;
59585;SDS011;45408;52.686;7.310;2023-02-14T10:16:49;22.98;;;14.55;;
59585;SDS011;45408;52.686;7.310;2023-02-14T10:19:25;23.92;;;14.60;;
59585;SDS011;45408;52.686;7.310;2023-02-14T10:21:58;18.60;;;11.23;;
59585;SDS011;45408;52.686;7.310;2023-02-14T10:24:34;34.42;;;16.35;;
59585;SDS011;45408;52.686;7.310;2023-02-14T10:27:02;28.27;;;16.33;;
59585;SDS011;45408;52.686;7.310;2023-02-14T10:29:29;24.02;;;13.07;;
59585;SDS011;45408;52.686;7.310;2023-02-14T10:31:58;21.70;;;12.17;;
59585;SDS011;45408;52.686;7.310;2023-02-14T10:34:26;24.27;;;15.60;;
59585;SDS011;45408;52.686;7.310;2023-02-14T10:50:10;22.13;;;14.30;;
59585;SDS011;45408;52.686;7.310;2023-02-14T10:55:07;18.63;;;11.20;;
59585;SDS011;45408;52.686;7.310;2023-02-14T10:57:35;25.63;;;13.88;;
59585;SDS011;45408;52.686;7.310;2023-02-14T11:00:05;24.40;;;13.43;;
59585;SDS011;45408;52.686;7.310;2023-02-14T11:02:33;20.63;;;13.07;;
59585;SDS011;45408;52.686;7.310;2023-02-14T11:04:59;23.58;;;13.88;;
59585;SDS011;45408;52.686;7.310;2023-02-14T11:07:24;26.90;;;15.63;;
59585;SDS011;45408;52.686;7.310;2023-02-14T11:09:49;22.00;;;11.83;;
59585;SDS011;45408;52.686;7.310;2023-02-14T11:17:39;24.00;;;13.05;;
59585;SDS011;45408;52.686;7.310;2023-02-14T11:20:26;27.83;;;16.30;;
59585;SDS011;45408;52.686;7.310;2023-02-14T11:22:50;22.50;;;14.30;;
59585;SDS011;45408;52.686;7.310;2023-02-14T11:25:22;30.08;;;16.10;;
59585;SDS011;45408;52.686;7.310;2023-02-14T11:27:49;33.72;;;16.60;;
59585;SDS011;45408;52.686;7.310;2023-02-14T11:30:21;27.40;;;15.98;;
59585;SDS011;45408;52.686;7.310;2023-02-14T11:32:48;32.03;;;16.88;;
59585;SDS011;45408;52.686;7.310;2023-02-14T11:35:19;27.60;;;15.40;;
59585;SDS011;45408;52.686;7.310;2023-02-14T11:37:48;27.60;;;16.67;;
59585;SDS011;45408;52.686;7.310;2023-02-14T11:45:40;27.57;;;16.27;;
59585;SDS011;45408;52.686;7.310;2023-02-14T11:50:31;27.42;;;15.43;;
59585;SDS011;45408;52.686;7.310;2023-02-14T11:52:56;28.63;;;16.67;;
59585;SDS011;45408;52.686;7.310;2023-02-14T11:55:23;26.20;;;15.18;;
59585;SDS011;45408;52.686;7.310;2023-02-14T11:57:50;29.90;;;16.95;;
59585;SDS011;45408;52.686;7.310;2023-02-14T12:00:16;32.85;;;17.27;;
59585;SDS011;45408;52.686;7.310;2023-02-14T12:02:42;25.38;;;15.38;;
59585;SDS011;45408;52.686;7.310;2023-02-14T12:05:18;32.72;;;16.20;;
59585;SDS011;45408;52.686;7.310;2023-02-14T12:07:44;24.60;;;15.88;;
59585;SDS011;45408;52.686;7.310;2023-02-14T12:12:47;31.40;;;18.38;;
59585;SDS011;45408;52.686;7.310;2023-02-14T12:15:23;30.83;;;18.17;;
59585;SDS011;45408;52.686;7.310;2023-02-14T12:17:50;29.02;;;15.45;;
59585;SDS011;45408;52.686;7.310;2023-02-14T12:20:18;31.75;;;18.08;;
59585;SDS011;45408;52.686;7.310;2023-02-14T12:22:53;23.75;;;14.68;;
59585;SDS011;45408;52.686;7.310;2023-02-14T12:25:21;31.50;;;16.83;;
59585;SDS011;45408;52.686;7.310;2023-02-14T12:30:14;34.35;;;17.55;;
59585;SDS011;45408;52.686;7.310;2023-02-14T12:32:45;26.42;;;16.77;;
59585;SDS011;45408;52.686;7.310;2023-02-14T12:37:39;29.10;;;18.27;;
59585;SDS011;45408;52.686;7.310;2023-02-14T12:40:15;28.40;;;17.67;;
59585;SDS011;45408;52.686;7.310;2023-02-14T12:43:02;32.42;;;17.50;;
59585;SDS011;45408;52.686;7.310;2023-02-14T12:45:46;29.52;;;17.20;;
59585;SDS011;45408;52.686;7.310;2023-02-14T12:50:52;26.58;;;16.30;;
59585;SDS011;45408;52.686;7.310;2023-02-14T12:58:28;30.48;;;16.52;;
59585;SDS011;45408;52.686;7.310;2023-02-14T13:03:43;28.00;;;16.60;;
59585;SDS011;45408;52.686;7.310;2023-02-14T13:06:17;25.08;;;15.50;;
59585;SDS011;45408;52.686;7.310;2023-02-14T13:21:17;25.73;;;15.23;;
59585;SDS011;45408;52.686;7.310;2023-02-14T13:23:44;32.47;;;18.42;;
59585;SDS011;45408;52.686;7.310;2023-02-14T13:26:12;24.90;;;14.63;;
59585;SDS011;45408;52.686;7.310;2023-02-14T13:28:47;24.60;;;15.15;;
59585;SDS011;45408;52.686;7.310;2023-02-14T13:31:13;29.42;;;16.10;;
59585;SDS011;45408;52.686;7.310;2023-02-14T13:33:47;25.70;;;14.43;;
59585;SDS011;45408;52.686;7.310;2023-02-14T13:36:14;27.08;;;15.95;;
59585;SDS011;45408;52.686;7.310;2023-02-14T13:38:43;32.83;;;16.33;;
59585;SDS011;45408;52.686;7.310;2023-02-14T13:41:09;26.00;;;15.68;;
59585;SDS011;45408;52.686;7.310;2023-02-14T13:43:45;24.23;;;15.38;;
59585;SDS011;45408;52.686;7.310;2023-02-14T13:46:11;25.83;;;16.48;;
59585;SDS011;45408;52.686;7.310;2023-02-14T13:48:36;30.77;;;17.55;;
59585;SDS011;45408;52.686;7.310;2023-02-14T13:51:03;26.43;;;14.97;;
59585;SDS011;45408;52.686;7.310;2023-02-14T13:55:53;28.87;;;17.87;;
59585;SDS011;45408;52.686;7.310;2023-02-14T13:58:20;26.48;;;15.00;;
59585;SDS011;45408;52.686;7.310;2023-02-14T14:00:46;26.00;;;17.10;;
59585;SDS011;45408;52.686;7.310;2023-02-14T14:03:13;28.33;;;16.75;;
59585;SDS011;45408;52.686;7.310;2023-02-14T14:08:33;32.25;;;17.35;;
59585;SDS011;45408;52.686;7.310;2023-02-14T14:11:03;33.47;;;19.60;;
59585;SDS011;45408;52.686;7.310;2023-02-14T14:21:33;29.58;;;17.95;;
59585;SDS011;45408;52.686;7.310;2023-02-14T14:24:17;31.73;;;19.10;;
59585;SDS011;45408;52.686;7.310;2023-02-14T14:26:45;19.40;;;9.30;;
59585;SDS011;45408;52.686;7.310;2023-02-14T14:29:15;31.67;;;17.80;;
59585;SDS011;45408;52.686;7.310;2023-02-14T14:31:41;20.92;;;11.13;;
59585;SDS011;45408;52.686;7.310;2023-02-14T14:34:13;23.58;;;11.52;;
59585;SDS011;45408;52.686;7.310;2023-02-14T14:36:39;24.85;;;15.32;;
59585;SDS011;45408;52.686;7.310;2023-02-14T14:39:04;27.00;;;15.60;;
59585;SDS011;45408;52.686;7.310;2023-02-14T14:41:29;27.17;;;16.10;;
59585;SDS011;45408;52.686;7.310;2023-02-14T14:43:57;21.45;;;13.80;;
59585;SDS011;45408;52.686;7.310;2023-02-14T14:46:22;31.55;;;18.58;;
59585;SDS011;45408;52.686;7.310;2023-02-14T14:48:48;26.30;;;16.05;;
59585;SDS011;45408;52.686;7.310;2023-02-14T14:51:48;28.13;;;16.58;;
59585;SDS011;45408;52.686;7.310;2023-02-14T14:54:07;26.27;;;16.58;;
59585;SDS011;45408;52.686;7.310;2023-02-14T14:56:43;27.20;;;16.00;;
59585;SDS011;45408;52.686;7.310;2023-02-14T14:59:18;30.08;;;16.73;;
59585;SDS011;45408;52.686;7.310;2023-02-14T15:01:49;30.55;;;17.55;;
59585;SDS011;45408;52.686;7.310;2023-02-14T15:04:17;29.02;;;17.02;;
59585;SDS011;45408;52.686;7.310;2023-02-14T15:06:42;26.50;;;17.02;;
59585;SDS011;45408;52.686;7.310;2023-02-14T15:09:41;28.85;;;16.20;;
59585;SDS011;45408;52.686;7.310;2023-02-14T15:11:59;26.65;;;17.60;;
59585;SDS011;45408;52.686;7.310;2023-02-14T15:14:44;31.75;;;16.13;;
59585;SDS011;45408;52.686;7.310;2023-02-14T15:17:18;26.33;;;16.23;;
59585;SDS011;45408;52.686;7.310;2023-02-14T15:19:44;27.05;;;15.13;;
59585;SDS011;45408;52.686;7.310;2023-02-14T15:22:18;27.17;;;16.25;;
59585;SDS011;45408;52.686;7.310;2023-02-14T15:24:44;30.38;;;17.55;;
59585;SDS011;45408;52.686;7.310;2023-02-14T15:27:16;25.73;;;15.82;;
59585;SDS011;45408;52.686;7.310;2023-02-14T15:29:51;26.33;;;16.23;;
59585;SDS011;45408;52.686;7.310;2023-02-14T15:32:17;26.60;;;16.23;;
59585;SDS011;45408;52.686;7.310;2023-02-14T15:34:43;27.10;;;16.33;;
59585;SDS011;45408;52.686;7.310;2023-02-14T15:37:09;24.40;;;15.35;;
59585;SDS011;45408;52.686;7.310;2023-02-14T15:39:43;23.23;;;15.05;;
59585;SDS011;45408;52.686;7.310;2023-02-14T15:42:18;26.77;;;16.17;;
59585;SDS011;45408;52.686;7.310;2023-02-14T15:44:46;23.38;;;15.48;;
59585;SDS011;45408;52.686;7.310;2023-02-14T15:47:11;23.27;;;14.70;;
59585;SDS011;45408;52.686;7.310;2023-02-14T15:49:38;24.38;;;15.27;;
59585;SDS011;45408;52.686;7.310;2023-02-14T15:52:06;28.58;;;16.42;;
59585;SDS011;45408;52.686;7.310;2023-02-14T15:54:34;65.97;;;32.65;;
59585;SDS011;45408;52.686;7.310;2023-02-14T15:57:00;66.93;;;33.38;;
59585;SDS011;45408;52.686;7.310;2023-02-14T15:59:27;35.13;;;20.85;;
59585;SDS011;45408;52.686;7.310;2023-02-14T16:01:56;35.92;;;21.20;;
59585;SDS011;45408;52.686;7.310;2023-02-14T16:04:22;32.60;;;18.15;;
59585;SDS011;45408;52.686;7.310;2023-02-14T16:06:48;33.85;;;19.17;;
59585;SDS011;45408;52.686;7.310;2023-02-14T16:09:27;28.90;;;17.90;;
59585;SDS011;45408;52.686;7.310;2023-02-14T16:11:52;28.42;;;18.02;;
59585;SDS011;45408;52.686;7.310;2023-02-14T16:14:34;26.70;;;16.13;;
59585;SDS011;45408;52.686;7.310;2023-02-14T16:17:04;29.27;;;16.95;;
59585;SDS011;45408;52.686;7.310;2023-02-14T16:19:30;27.27;;;16.90;;
59585;SDS011;45408;52.686;7.310;2023-02-14T16:21:55;33.28;;;17.40;;
59585;SDS011;45408;52.686;7.310;2023-02-14T16:24:21;24.15;;;13.30;;
59585;SDS011;45408;52.686;7.310;2023-02-14T16:26:46;33.42;;;16.73;;
59585;SDS011;45408;52.686;7.310;2023-02-14T16:29:16;30.40;;;17.38;;
59585;SDS011;45408;52.686;7.310;2023-02-14T16:31:46;27.08;;;15.27;;
59585;SDS011;45408;52.686;7.310;2023-02-14T16:34:12;28.05;;;15.13;;
59585;SDS011;45408;52.686;7.310;2023-02-14T16:36:37;29.65;;;15.13;;
59585;SDS011;45408;52.686;7.310;2023-02-14T16:39:03;24.65;;;15.75;;